Time;durP1;ratioP1;P1;durP2;ratioP2;P2;SDS_P1;SDS_P2;PMS_P1;PMS_P2;Temp;Humidity;BMP_temperature;BMP_pressure;BME280_temperature;BME280_humidity;BME280_pressure;Samples;Min_cycle;Max_cycle;Signal;HPM_P1;HPM_P2
2021/09/23 00:01:38;;;;;;;16.00;14.27;;;20.00;77.40;;;;;;4207338;28;20098;-60
2021/09/23 00:04:15;;;;;;;16.45;14.77;;;20.00;77.30;;;;;;4208077;28;20043;-60
2021/09/23 00:06:38;;;;;;;15.85;13.80;;;20.00;77.30;;;;;;4208119;28;20055;-59
2021/09/23 00:09:00;;;;;;;16.52;14.13;;;19.90;77.30;;;;;;4208357;28;20051;-61
2021/09/23 00:11:22;;;;;;;16.25;14.65;;;19.90;77.40;;;;;;4207585;28;20075;-60
2021/09/23 00:13:45;;;;;;;16.55;14.85;;;19.90;77.10;;;;;;4206482;28;20043;-60
2021/09/23 00:16:07;;;;;;;17.25;15.05;;;19.90;77.10;;;;;;4207921;28;20479;-60
2021/09/23 00:18:31;;;;;;;16.23;14.18;;;19.90;76.80;;;;;;4207969;28;20490;-60
2021/09/23 00:20:54;;;;;;;17.40;15.50;;;19.90;77.40;;;;;;4207702;28;20051;-60
2021/09/23 00:23:17;;;;;;;16.10;14.50;;;19.90;76.50;;;;;;4207332;28;20044;-60
2021/09/23 00:25:40;;;;;;;18.25;14.88;;;19.90;76.60;;;;;;4207691;28;20047;-59
2021/09/23 00:28:04;;;;;;;16.08;14.35;;;19.90;76.50;;;;;;4207808;28;20544;-59
2021/09/23 00:30:27;;;;;;;18.25;14.57;;;19.90;76.40;;;;;;4204832;28;20047;-60
2021/09/23 00:32:50;;;;;;;18.00;15.30;;;19.90;76.40;;;;;;4207885;28;20409;-59
2021/09/23 00:35:13;;;;;;;17.17;14.75;;;19.90;76.90;;;;;;4206634;28;20429;-60
2021/09/23 00:37:36;;;;;;;16.25;14.57;;;19.80;76.50;;;;;;4205159;28;20138;-59
2021/09/23 00:39:58;;;;;;;17.17;15.40;;;19.80;76.20;;;;;;4206705;28;20760;-60
2021/09/23 00:42:21;;;;;;;16.73;14.80;;;19.80;75.90;;;;;;4189765;28;20502;-59
2021/09/23 00:44:54;;;;;;;17.63;15.18;;;19.80;76.70;;;;;;4190612;28;20048;-60
2021/09/23 00:47:16;;;;;;;17.02;15.32;;;19.80;76.20;;;;;;4190459;28;20421;-60
2021/09/23 00:49:38;;;;;;;16.25;14.55;;;19.80;76.70;;;;;;4189198;28;20067;-60
2021/09/23 00:52:01;;;;;;;18.33;15.32;;;19.80;76.30;;;;;;4206225;28;20047;-61
2021/09/23 00:54:25;;;;;;;17.30;15.50;;;19.80;76.30;;;;;;4204642;28;20032;-60
2021/09/23 00:56:47;;;;;;;17.08;15.27;;;19.80;76.00;;;;;;4204947;28;20060;-60
2021/09/23 00:59:09;;;;;;;17.63;15.82;;;19.70;76.60;;;;;;4205374;28;20434;-60
2021/09/23 01:01:36;;;;;;;17.67;15.77;;;19.70;76.50;;;;;;4220469;28;20460;-60
2021/09/23 01:03:58;;;;;;;16.75;15.15;;;19.70;76.20;;;;;;4191842;28;20044;-60
2021/09/23 01:06:21;;;;;;;16.83;15.10;;;19.70;76.20;;;;;;4204844;28;20736;-60
2021/09/23 01:08:54;;;;;;;17.35;15.60;;;19.70;76.20;;;;;;4206077;28;20124;-60
2021/09/23 01:11:17;;;;;;;17.95;16.05;;;19.70;76.00;;;;;;4205760;28;20063;-60
2021/09/23 01:13:39;;;;;;;16.50;14.90;;;19.70;75.20;;;;;;4205825;28;20052;-60
2021/09/23 01:16:02;;;;;;;17.40;15.57;;;19.70;75.90;;;;;;4205894;28;20054;-60
2021/09/23 01:18:43;;;;;;;21.30;15.85;;;19.70;75.80;;;;;;4207231;28;20506;-60
2021/09/23 01:21:08;;;;;;;18.88;16.88;;;19.70;77.00;;;;;;4205958;28;20083;-59
2021/09/23 01:23:29;;;;;;;19.48;17.52;;;19.70;76.60;;;;;;4206072;28;20044;-60
2021/09/23 01:25:52;;;;;;;18.75;16.75;;;19.70;76.70;;;;;;4210785;28;20144;-60
2021/09/23 01:28:15;;;;;;;21.05;17.48;;;19.70;76.50;;;;;;4209288;28;20069;-60
2021/09/23 01:30:48;;;;;;;19.50;16.90;;;19.70;77.50;;;;;;4209642;28;20054;-60
2021/09/23 01:33:10;;;;;;;21.30;18.20;;;19.60;76.80;;;;;;4208054;28;20089;-59
2021/09/23 01:35:33;;;;;;;20.55;17.63;;;19.70;76.40;;;;;;4179164;28;20476;-60
2021/09/23 01:37:58;;;;;;;20.17;17.00;;;19.70;76.50;;;;;;4178826;28;20140;-64
2021/09/23 01:40:21;;;;;;;18.15;16.25;;;19.70;76.10;;;;;;4191196;28;20058;-59
2021/09/23 01:42:45;;;;;;;20.20;18.05;;;19.60;76.20;;;;;;4192485;28;20060;-61
2021/09/23 01:45:08;;;;;;;19.83;17.70;;;19.60;76.30;;;;;;4220857;28;20097;-60
2021/09/23 01:47:38;;;;;;;24.30;17.45;;;19.60;76.00;;;;;;4178289;28;20053;-60
2021/09/23 01:50:00;;;;;;;22.25;18.27;;;19.60;76.60;;;;;;4204241;28;20052;-60
2021/09/23 01:52:27;;;;;;;19.48;17.48;;;19.60;76.60;;;;;;4209225;28;20127;-60
2021/09/23 01:55:20;;;;;;;22.15;18.95;;;19.60;76.00;;;;;;4208566;28;20055;-60
2021/09/23 01:57:44;;;;;;;20.33;17.73;;;19.60;76.60;;;;;;4209056;28;20055;-59
2021/09/23 02:00:08;;;;;;;20.30;17.80;;;19.60;76.40;;;;;;4208799;28;20517;-60
2021/09/23 02:02:40;;;;;;;20.30;17.73;;;19.60;75.90;;;;;;4208684;28;20134;-60
2021/09/23 02:05:26;;;;;;;19.13;16.50;;;19.60;76.00;;;;;;4208708;28;20078;-59
2021/09/23 02:07:48;;;;;;;21.00;17.63;;;19.50;75.70;;;;;;4208847;28;20102;-59
2021/09/23 02:10:11;;;;;;;24.50;18.80;;;19.50;75.50;;;;;;4208669;28;20173;-60
2021/09/23 02:12:34;;;;;;;20.25;17.70;;;19.50;75.70;;;;;;4208791;28;20055;-60
2021/09/23 02:14:58;;;;;;;20.20;17.52;;;19.50;76.20;;;;;;4210334;28;20143;-60
2021/09/23 02:17:21;;;;;;;20.10;17.95;;;19.50;75.90;;;;;;4183424;28;20155;-60
2021/09/23 02:19:49;;;;;;;21.45;18.48;;;19.50;75.50;;;;;;4194070;28;20048;-61
2021/09/23 02:22:12;;;;;;;22.67;18.77;;;19.50;75.60;;;;;;4205742;28;20157;-60
2021/09/23 02:24:35;;;;;;;22.05;18.52;;;19.50;75.80;;;;;;4208669;28;20055;-61
2021/09/23 02:26:57;;;;;;;22.30;17.92;;;19.50;76.50;;;;;;4195045;28;20041;-61
2021/09/23 02:29:21;;;;;;;23.15;18.45;;;19.50;75.90;;;;;;4208279;28;20054;-61
2021/09/23 02:31:43;;;;;;;21.40;18.80;;;19.50;75.90;;;;;;4208588;28;21052;-61
2021/09/23 02:34:05;;;;;;;20.63;17.73;;;19.50;75.80;;;;;;4210014;28;20109;-61
2021/09/23 02:36:27;;;;;;;20.48;18.27;;;19.50;76.40;;;;;;4209168;28;20043;-61
2021/09/23 02:38:49;;;;;;;22.88;18.88;;;19.40;75.60;;;;;;4208099;28;20711;-60
2021/09/23 02:41:11;;;;;;;21.63;18.52;;;19.40;75.60;;;;;;4209514;28;20112;-60
2021/09/23 02:43:33;;;;;;;21.73;17.70;;;19.40;74.80;;;;;;4209780;28;20044;-60
2021/09/23 02:45:57;;;;;;;22.70;19.02;;;19.40;76.00;;;;;;4207869;28;20043;-60
2021/09/23 02:48:19;;;;;;;22.35;18.85;;;19.40;76.00;;;;;;4207825;28;20560;-59
2021/09/23 02:50:41;;;;;;;21.00;18.73;;;19.40;75.90;;;;;;4208577;28;20547;-60
2021/09/23 02:53:03;;;;;;;21.05;18.73;;;19.40;75.00;;;;;;4209386;28;20047;-60
2021/09/23 02:55:26;;;;;;;21.98;18.15;;;19.40;75.50;;;;;;4235567;27;20088;-60
2021/09/23 02:57:48;;;;;;;21.35;17.95;;;19.40;74.80;;;;;;4207404;28;20165;-60
2021/09/23 03:00:11;;;;;;;20.27;17.83;;;19.40;74.70;;;;;;4209359;28;20497;-60
2021/09/23 03:02:34;;;;;;;22.83;18.27;;;19.40;75.50;;;;;;4206732;28;20059;-59
2021/09/23 03:04:56;;;;;;;21.48;18.13;;;19.40;75.10;;;;;;4199414;28;20153;-59
2021/09/23 03:07:19;;;;;;;21.80;18.25;;;19.40;75.90;;;;;;4209463;28;20050;-59
2021/09/23 03:09:41;;;;;;;23.80;18.65;;;19.40;75.70;;;;;;4195637;28;20121;-59
2021/09/23 03:12:03;;;;;;;21.35;18.83;;;19.40;75.50;;;;;;4186776;28;20422;-60
2021/09/23 03:14:25;;;;;;;21.23;19.00;;;19.40;75.20;;;;;;4174920;28;20487;-60
2021/09/23 03:16:47;;;;;;;21.23;17.83;;;19.40;75.40;;;;;;4207908;28;20102;-59
2021/09/23 03:19:11;;;;;;;25.00;19.75;;;19.30;75.40;;;;;;4208994;28;20060;-59
2021/09/23 03:21:33;;;;;;;24.60;18.70;;;19.30;76.00;;;;;;4209157;28;20060;-60
2021/09/23 03:23:55;;;;;;;24.10;18.67;;;19.30;75.80;;;;;;4207751;28;20510;-59
2021/09/23 03:26:18;;;;;;;22.00;18.23;;;19.30;75.80;;;;;;4192439;28;20584;-61
2021/09/23 03:28:40;;;;;;;23.48;18.83;;;19.30;76.20;;;;;;4196830;28;20114;-61
2021/09/23 03:31:02;;;;;;;24.17;18.17;;;19.30;75.80;;;;;;4207755;28;20047;-61
2021/09/23 03:33:24;;;;;;;20.40;17.63;;;19.30;75.50;;;;;;4208999;28;20494;-61
2021/09/23 03:35:48;;;;;;;20.15;17.70;;;19.30;75.90;;;;;;4209068;28;20048;-61
2021/09/23 03:38:10;;;;;;;23.05;17.83;;;19.30;75.90;;;;;;4208128;28;20141;-61
2021/09/23 03:40:32;;;;;;;23.05;19.13;;;19.30;75.90;;;;;;4208547;28;20180;-60
2021/09/23 03:42:55;;;;;;;24.35;18.55;;;19.30;76.90;;;;;;4208941;28;20043;-60
2021/09/23 03:45:18;;;;;;;23.15;18.27;;;19.30;75.80;;;;;;4208326;28;20058;-61
2021/09/23 03:47:40;;;;;;;21.05;17.85;;;19.30;76.50;;;;;;4207591;28;20139;-61
2021/09/23 03:50:03;;;;;;;21.70;18.00;;;19.30;76.40;;;;;;4206877;28;20117;-60
2021/09/23 03:52:28;;;;;;;23.02;18.80;;;19.30;76.30;;;;;;4207260;28;20051;-60
2021/09/23 03:54:50;;;;;;;24.38;19.58;;;19.30;76.10;;;;;;4207087;28;20051;-60
2021/09/23 03:57:12;;;;;;;22.85;19.35;;;19.30;76.10;;;;;;4206914;28;20059;-61
2021/09/23 03:59:34;;;;;;;24.17;19.27;;;19.30;76.60;;;;;;4208623;28;20044;-61
2021/09/23 04:01:56;;;;;;;24.48;19.35;;;19.30;76.50;;;;;;4208238;28;20055;-61
2021/09/23 04:04:18;;;;;;;23.50;18.45;;;19.30;76.50;;;;;;4206940;28;20437;-61
2021/09/23 04:06:43;;;;;;;22.55;18.17;;;19.20;76.50;;;;;;4207964;28;20055;-61
2021/09/23 04:09:11;;;;;;;23.88;19.33;;;19.30;76.80;;;;;;4206109;28;20056;-60
2021/09/23 04:11:34;;;;;;;23.48;20.27;;;19.20;76.80;;;;;;4206664;28;20093;-61
2021/09/23 04:13:56;;;;;;;22.92;19.00;;;19.30;77.10;;;;;;4190097;28;20048;-60
2021/09/23 04:16:19;;;;;;;22.80;18.67;;;19.20;77.10;;;;;;4189945;28;20051;-60
2021/09/23 04:18:41;;;;;;;22.92;18.92;;;19.20;77.20;;;;;;4205924;28;20074;-60
2021/09/23 04:21:03;;;;;;;21.80;17.98;;;19.20;77.40;;;;;;4206639;28;20101;-60
2021/09/23 04:23:26;;;;;;;22.35;19.33;;;19.20;77.00;;;;;;4206852;28;20044;-60
2021/09/23 04:25:50;;;;;;;21.40;17.92;;;19.20;77.30;;;;;;4206307;28;20075;-61
2021/09/23 04:28:13;;;;;;;23.23;19.35;;;19.20;77.40;;;;;;4205963;28;20158;-60
2021/09/23 04:30:35;;;;;;;24.25;19.08;;;19.20;77.20;;;;;;4206662;28;20040;-61
2021/09/23 04:32:57;;;;;;;23.27;19.00;;;19.20;77.40;;;;;;4206438;28;20059;-61
2021/09/23 04:35:19;;;;;;;21.88;19.27;;;19.20;77.20;;;;;;4208103;28;20043;-61
2021/09/23 04:37:41;;;;;;;23.15;18.75;;;19.20;77.30;;;;;;4204654;28;20047;-61
2021/09/23 04:40:04;;;;;;;21.92;17.67;;;19.20;77.40;;;;;;4206637;28;20728;-60
2021/09/23 04:42:27;;;;;;;24.85;19.98;;;19.20;77.70;;;;;;4207616;28;20097;-61
2021/09/23 04:44:54;;;;;;;25.20;18.13;;;19.20;77.50;;;;;;4207431;28;20102;-60
2021/09/23 04:47:16;;;;;;;22.15;19.63;;;19.20;77.50;;;;;;4207519;28;20577;-60
2021/09/23 04:49:38;;;;;;;24.73;19.50;;;19.20;77.60;;;;;;4206350;28;20494;-61
2021/09/23 04:52:01;;;;;;;21.27;18.98;;;19.20;77.30;;;;;;4205757;28;20911;-59
2021/09/23 04:54:23;;;;;;;23.42;19.98;;;19.20;77.80;;;;;;4207182;28;20036;-61
2021/09/23 04:56:45;;;;;;;24.80;19.75;;;19.20;77.80;;;;;;4195305;28;20058;-61
2021/09/23 04:59:09;;;;;;;24.55;19.75;;;19.20;77.60;;;;;;4207636;28;20032;-61
2021/09/23 05:01:31;;;;;;;26.38;20.60;;;19.20;77.80;;;;;;4206277;28;20047;-62
2021/09/23 05:03:53;;;;;;;24.92;20.50;;;19.10;78.00;;;;;;4206105;28;20210;-61
2021/09/23 05:06:15;;;;;;;22.77;19.45;;;19.10;78.10;;;;;;4205517;28;20059;-61
2021/09/23 05:08:38;;;;;;;23.88;19.80;;;19.10;78.30;;;;;;4206308;28;20455;-61
2021/09/23 05:11:03;;;;;;;25.02;19.83;;;19.10;78.40;;;;;;4235179;27;20055;-60
2021/09/23 05:13:25;;;;;;;25.10;19.08;;;19.10;78.50;;;;;;4190594;28;20044;-62
2021/09/23 05:15:49;;;;;;;23.65;18.65;;;19.10;78.50;;;;;;4190794;28;20044;-61
2021/09/23 05:18:12;;;;;;;28.63;19.55;;;19.10;78.70;;;;;;4191199;28;20083;-61
2021/09/23 05:20:34;;;;;;;25.02;20.40;;;19.10;78.70;;;;;;4190830;28;20461;-61
2021/09/23 05:22:58;;;;;;;24.73;19.50;;;19.10;78.70;;;;;;4197350;28;20513;-62
2021/09/23 05:25:21;;;;;;;24.17;19.90;;;19.20;78.80;;;;;;4207296;28;20556;-62
2021/09/23 05:27:43;;;;;;;25.08;19.48;;;19.10;78.90;;;;;;4207738;28;20066;-61
2021/09/23 05:30:06;;;;;;;23.95;20.60;;;19.10;78.90;;;;;;4207484;28;20122;-60
2021/09/23 05:32:30;;;;;;;23.88;19.60;;;19.10;78.90;;;;;;4207195;28;20044;-60
2021/09/23 05:34:52;;;;;;;23.05;19.40;;;19.10;79.00;;;;;;4207415;28;20059;-60
2021/09/23 05:37:15;;;;;;;26.45;20.25;;;19.10;79.20;;;;;;4207444;28;20048;-60
2021/09/23 05:39:37;;;;;;;24.70;19.77;;;19.10;79.20;;;;;;4207694;28;20051;-59
2021/09/23 05:41:59;;;;;;;27.70;20.45;;;19.10;79.50;;;;;;4207235;28;20501;-59
2021/09/23 05:44:24;;;;;;;23.73;21.10;;;19.10;79.60;;;;;;4190745;28;20044;-60
2021/09/23 05:46:46;;;;;;;26.65;20.00;;;19.10;79.50;;;;;;4190626;28;20490;-60
2021/09/23 05:49:12;;;;;;;28.23;20.23;;;19.10;79.50;;;;;;4190879;28;20055;-60
2021/09/23 05:51:35;;;;;;;23.02;18.55;;;19.10;79.70;;;;;;4199367;28;20158;-60
2021/09/23 05:53:57;;;;;;;25.05;20.05;;;19.10;80.00;;;;;;4207250;28;20044;-60
2021/09/23 05:56:20;;;;;;;26.30;20.42;;;19.10;80.10;;;;;;4207134;28;20054;-60
2021/09/23 05:58:42;;;;;;;24.33;19.90;;;19.10;80.10;;;;;;4207364;28;20047;-59
2021/09/23 06:01:04;;;;;;;30.42;21.45;;;19.10;80.40;;;;;;4192400;28;20480;-59
2021/09/23 06:03:41;;;;;;;27.02;20.75;;;19.10;80.40;;;;;;4206494;28;20494;-59
2021/09/23 06:06:04;;;;;;;25.77;21.58;;;19.10;80.40;;;;;;4196405;28;20535;-61
2021/09/23 06:08:26;;;;;;;22.67;16.98;;;19.10;80.60;;;;;;4206951;28;20081;-59
2021/09/23 06:10:48;;;;;;;22.85;19.05;;;19.10;81.20;;;;;;4197436;28;20129;-59
2021/09/23 06:13:11;;;;;;;25.92;19.38;;;19.10;81.40;;;;;;4209897;28;20105;-59
2021/09/23 06:15:33;;;;;;;26.85;20.30;;;19.20;81.00;;;;;;4210138;28;20494;-59
2021/09/23 06:17:55;;;;;;;24.42;19.40;;;19.20;80.90;;;;;;4209328;28;20555;-58
2021/09/23 06:20:20;;;;;;;28.67;20.50;;;19.20;81.70;;;;;;4208768;28;20058;-59
2021/09/23 06:22:46;;;;;;;24.75;19.65;;;19.20;80.80;;;;;;4209262;28;20134;-58
2021/09/23 06:25:10;;;;;;;25.35;20.00;;;19.10;80.70;;;;;;4208187;28;20117;-58
2021/09/23 06:27:32;;;;;;;25.45;20.63;;;19.10;80.80;;;;;;4210230;28;20071;-59
2021/09/23 06:29:54;;;;;;;24.02;16.35;;;19.10;80.80;;;;;;4209551;28;20051;-59
2021/09/23 06:32:16;;;;;;;23.90;18.95;;;19.10;80.80;;;;;;4209605;28;20532;-58
2021/09/23 06:34:39;;;;;;;25.15;19.25;;;19.10;80.80;;;;;;4235238;27;20100;-59
2021/09/23 06:37:01;;;;;;;23.45;18.35;;;19.10;80.90;;;;;;4208300;28;20478;-59
2021/09/23 06:39:24;;;;;;;23.88;19.25;;;19.20;80.90;;;;;;4209788;28;20051;-59
2021/09/23 06:41:47;;;;;;;23.55;19.50;;;19.10;81.70;;;;;;4209287;28;20105;-57
2021/09/23 06:44:09;;;;;;;21.60;17.85;;;19.10;80.90;;;;;;4193008;28;20060;-58
2021/09/23 06:46:31;;;;;;;25.17;19.13;;;19.10;80.90;;;;;;4197482;28;20103;-57
2021/09/23 06:48:54;;;;;;;23.00;18.45;;;19.10;80.90;;;;;;4209803;28;20418;-58
2021/09/23 06:51:16;;;;;;;22.52;17.67;;;19.10;80.90;;;;;;4209662;28;20052;-56
2021/09/23 06:53:43;;;;;;;23.55;18.58;;;19.10;81.00;;;;;;4209159;28;20059;-57
2021/09/23 06:56:06;;;;;;;24.67;19.33;;;19.10;81.00;;;;;;4209418;28;20075;-58
2021/09/23 06:58:28;;;;;;;22.38;17.50;;;19.10;81.10;;;;;;4209485;28;20719;-58
2021/09/23 07:01:09;;;;;;;22.73;18.33;;;19.10;81.10;;;;;;4207792;28;20074;-57
2021/09/23 07:03:51;;;;;;;22.55;17.65;;;19.10;81.10;;;;;;4207421;28;20552;-57
2021/09/23 07:06:27;;;;;;;22.90;17.85;;;19.10;81.10;;;;;;4205094;28;20052;-58
2021/09/23 07:08:49;;;;;;;21.02;17.60;;;19.10;81.10;;;;;;4204542;28;20544;-59
2021/09/23 07:11:15;;;;;;;22.40;19.38;;;19.10;81.30;;;;;;4207902;28;20076;-57
2021/09/23 07:13:37;;;;;;;19.90;16.35;;;19.10;81.30;;;;;;4207716;28;20051;-59
2021/09/23 07:16:00;;;;;;;19.77;16.85;;;19.10;81.20;;;;;;4208580;28;20040;-59
2021/09/23 07:18:22;;;;;;;20.65;16.70;;;19.10;82.20;;;;;;4209028;28;20142;-58
2021/09/23 07:20:44;;;;;;;21.17;17.42;;;19.10;81.50;;;;;;4209065;28;20355;-58
2021/09/23 07:23:07;;;;;;;21.15;16.55;;;19.10;81.60;;;;;;4208957;28;20054;-58
2021/09/23 07:25:30;;;;;;;19.88;16.88;;;19.10;81.70;;;;;;4207165;28;20089;-58
2021/09/23 07:27:55;;;;;;;23.17;17.98;;;19.10;81.70;;;;;;4190593;28;20056;-58
2021/09/23 07:30:18;;;;;;;20.23;15.82;;;19.10;81.90;;;;;;4197133;28;20494;-60
2021/09/23 07:32:41;;;;;;;18.88;15.82;;;19.10;81.80;;;;;;4207378;28;20425;-59
2021/09/23 07:35:03;;;;;;;19.02;15.18;;;19.20;81.70;;;;;;4208769;28;20048;-59
2021/09/23 07:37:26;;;;;;;23.00;16.25;;;19.20;81.80;;;;;;4208710;28;20454;-58
2021/09/23 07:39:49;;;;;;;20.70;16.30;;;19.20;81.80;;;;;;4208898;28;20424;-58
2021/09/23 07:42:11;;;;;;;20.65;15.68;;;19.20;81.80;;;;;;4207635;28;20055;-58
2021/09/23 07:44:36;;;;;;;17.77;13.90;;;19.20;82.00;;;;;;4208888;28;20048;-56
2021/09/23 07:46:59;;;;;;;17.50;13.38;;;19.20;82.10;;;;;;4206704;28;20040;-59
2021/09/23 07:49:21;;;;;;;15.25;12.50;;;19.10;82.00;;;;;;4206524;28;20054;-60
2021/09/23 07:51:44;;;;;;;15.85;13.00;;;19.20;82.10;;;;;;4207475;28;20125;-59
2021/09/23 07:54:07;;;;;;;17.58;12.13;;;19.10;82.00;;;;;;4207040;28;20044;-59
2021/09/23 07:56:29;;;;;;;16.20;12.20;;;19.20;82.10;;;;;;4206927;28;20178;-59
2021/09/23 07:58:52;;;;;;;12.43;11.10;;;19.20;82.30;;;;;;4207284;28;20085;-59
2021/09/23 08:01:15;;;;;;;12.70;10.77;;;19.20;82.30;;;;;;4206963;28;20521;-59
2021/09/23 08:03:38;;;;;;;12.13;9.63;;;19.20;82.20;;;;;;4206480;28;20526;-59
2021/09/23 08:06:00;;;;;;;10.57;9.30;;;19.20;82.20;;;;;;4207063;28;20055;-59
2021/09/23 08:08:23;;;;;;;10.90;7.53;;;19.20;82.10;;;;;;4207031;28;20059;-59
2021/09/23 08:10:45;;;;;;;8.38;6.95;;;19.20;82.30;;;;;;4207277;28;20206;-59
2021/09/23 08:13:07;;;;;;;7.18;6.47;;;19.30;82.30;;;;;;4206942;28;20119;-59
2021/09/23 08:15:30;;;;;;;5.30;4.75;;;19.30;82.30;;;;;;4206612;28;20163;-59
2021/09/23 08:18:07;;;;;;;6.95;4.30;;;19.30;82.40;;;;;;4206536;28;20094;-59
2021/09/23 08:20:47;;;;;;;3.53;2.67;;;19.30;82.20;;;;;;4207553;28;20187;-58
2021/09/23 08:23:10;;;;;;;3.90;2.80;;;19.30;82.10;;;;;;4206861;28;20139;-59
2021/09/23 08:25:33;;;;;;;3.90;2.15;;;19.30;81.90;;;;;;4206425;28;20070;-59
2021/09/23 08:27:55;;;;;;;4.28;2.90;;;19.30;81.80;;;;;;4205988;28;20067;-61
2021/09/23 08:30:18;;;;;;;2.92;2.38;;;19.30;81.80;;;;;;4189921;28;20052;-59
2021/09/23 08:32:42;;;;;;;4.60;2.50;;;19.30;81.80;;;;;;4201556;28;20051;-60
2021/09/23 08:35:08;;;;;;;4.15;2.35;;;19.30;81.70;;;;;;4206487;28;20048;-60
2021/09/23 08:37:31;;;;;;;1.92;1.83;;;19.30;81.70;;;;;;4207888;28;20078;-59
2021/09/23 08:39:53;;;;;;;3.75;1.95;;;19.30;81.60;;;;;;4192681;28;20617;-59
2021/09/23 08:42:16;;;;;;;2.90;2.70;;;19.30;81.70;;;;;;4206348;28;20562;-59
2021/09/23 08:44:40;;;;;;;2.30;2.10;;;19.30;81.70;;;;;;4206380;28;20047;-59
2021/09/23 08:47:02;;;;;;;2.75;2.15;;;19.30;81.80;;;;;;4207985;28;20067;-59
2021/09/23 08:49:26;;;;;;;4.07;2.40;;;19.40;81.90;;;;;;4206503;28;20225;-59
2021/09/23 08:51:50;;;;;;;3.67;1.98;;;19.40;81.80;;;;;;4206313;28;20044;-59
2021/09/23 08:54:12;;;;;;;5.45;1.75;;;19.40;81.80;;;;;;4206546;28;20063;-59
2021/09/23 08:56:35;;;;;;;6.32;2.33;;;19.40;81.60;;;;;;4207313;28;20047;-58
2021/09/23 08:58:57;;;;;;;2.92;1.77;;;19.40;81.60;;;;;;4207456;28;20089;-59
2021/09/23 09:01:20;;;;;;;4.90;1.90;;;19.40;81.70;;;;;;4207467;28;20051;-59
2021/09/23 09:04:01;;;;;;;2.47;2.00;;;19.40;81.60;;;;;;4206392;28;20122;-59
2021/09/23 09:06:59;;;;;;;2.60;1.80;;;19.50;81.40;;;;;;4205928;28;20063;-60
2021/09/23 09:09:45;;;;;;;4.80;2.22;;;19.50;81.30;;;;;;4207528;28;20128;-60
2021/09/23 09:12:14;;;;;;;2.13;1.90;;;19.50;81.30;;;;;;4217843;28;20760;-60
2021/09/23 09:14:38;;;;;;;4.43;1.63;;;19.50;81.20;;;;;;4189310;28;20109;-60
2021/09/23 09:17:02;;;;;;;2.72;1.88;;;19.60;81.20;;;;;;4191064;28;20052;-58
2021/09/23 09:19:24;;;;;;;10.60;2.03;;;19.50;81.10;;;;;;4197985;28;20162;-61
2021/09/23 09:21:47;;;;;;;4.85;1.88;;;19.60;81.00;;;;;;4197267;28;20056;-61
2021/09/23 09:24:15;;;;;;;5.25;2.00;;;19.60;81.00;;;;;;4205745;28;20072;-62
2021/09/23 09:26:41;;;;;;;2.60;1.52;;;19.60;80.90;;;;;;4205605;28;20125;-61
2021/09/23 09:29:09;;;;;;;;;;;19.60;80.80;;;;;;4206096;28;20474;-61
2021/09/23 09:31:32;;;;;;;6.72;2.00;;;19.60;80.70;;;;;;4206373;28;20111;-60
2021/09/23 09:33:59;;;;;;;2.58;1.52;;;19.60;80.60;;;;;;4207522;28;20102;-62
2021/09/23 09:36:33;;;;;;;6.60;2.10;;;19.70;80.60;;;;;;4234780;28;20109;-61
2021/09/23 09:38:57;;;;;;;7.55;2.22;;;19.70;80.50;;;;;;4205596;28;20109;-62
2021/09/23 09:41:26;;;;;;;3.72;1.10;;;19.60;80.40;;;;;;4207310;28;20522;-60
2021/09/23 09:43:52;;;;;;;2.67;1.63;;;19.70;80.40;;;;;;4234799;28;20073;-61
2021/09/23 09:46:27;;;;;;;3.80;1.17;;;19.70;80.40;;;;;;4208395;28;20139;-61
2021/09/23 09:48:49;;;;;;;5.10;1.80;;;19.70;80.40;;;;;;4233854;27;20140;-61
2021/09/23 09:51:11;;;;;;;2.65;1.10;;;19.70;80.50;;;;;;4201999;28;20048;-60
2021/09/23 09:53:33;;;;;;;4.22;1.55;;;19.70;80.50;;;;;;4208929;28;20048;-59
2021/09/23 09:55:56;;;;;;;4.35;1.40;;;19.70;80.60;;;;;;4208643;28;20060;-60
2021/09/23 09:58:24;;;;;;;2.67;1.77;;;19.70;80.50;;;;;;4208818;28;20482;-60
2021/09/23 10:00:46;;;;;;;3.05;1.38;;;19.70;80.40;;;;;;4210222;28;20063;-60
2021/09/23 10:03:09;;;;;;;3.00;1.38;;;19.70;80.40;;;;;;4208836;28;20080;-60
2021/09/23 10:05:34;;;;;;;3.28;1.67;;;19.70;80.40;;;;;;4209039;28;20543;-59
2021/09/23 10:08:00;;;;;;;3.05;1.48;;;19.70;80.50;;;;;;4208967;28;20044;-60
2021/09/23 10:10:25;;;;;;;4.45;1.80;;;19.70;80.60;;;;;;4192359;28;20119;-60
2021/09/23 10:12:49;;;;;;;3.92;1.50;;;19.70;80.60;;;;;;4192390;28;20048;-60
2021/09/23 10:15:15;;;;;;;5.45;1.63;;;19.60;80.60;;;;;;4191844;28;20657;-59
2021/09/23 10:17:37;;;;;;;6.05;1.75;;;19.70;80.70;;;;;;4192102;28;20082;-61
2021/09/23 10:20:01;;;;;;;6.45;1.50;;;19.70;80.70;;;;;;4191882;28;20052;-60
2021/09/23 10:22:25;;;;;;;2.40;1.15;;;19.60;80.80;;;;;;4226390;27;20050;-61
2021/09/23 10:24:48;;;;;;;5.80;1.38;;;19.60;80.90;;;;;;4202554;28;20059;-64
2021/09/23 10:29:55;;;;;;;3.00;1.40;;;19.60;81.20;;;;;;4209382;28;20051;-60
2021/09/23 10:32:20;;;;;;;6.22;1.63;;;19.60;81.20;;;;;;4208494;28;20502;-60
2021/09/23 10:34:44;;;;;;;6.40;1.73;;;19.60;81.30;;;;;;4208600;28;20060;-59
2021/09/23 10:37:06;;;;;;;6.78;1.92;;;19.60;81.40;;;;;;4208293;28;20059;-60
2021/09/23 10:39:32;;;;;;;4.35;1.45;;;19.60;81.40;;;;;;4208421;28;20780;-60
2021/09/23 10:41:55;;;;;;;6.28;1.83;;;19.60;81.40;;;;;;4208386;28;20067;-60
2021/09/23 10:44:19;;;;;;;5.72;1.75;;;19.60;81.50;;;;;;4191856;28;20064;-60
2021/09/23 10:46:41;;;;;;;4.20;1.70;;;19.60;81.50;;;;;;4221916;28;20130;-60
2021/09/23 10:49:06;;;;;;;3.90;1.55;;;19.60;81.60;;;;;;4208257;28;20105;-60
2021/09/23 10:51:33;;;;;;;4.68;1.85;;;19.60;81.60;;;;;;4235178;27;20051;-60
2021/09/23 10:54:05;;;;;;;3.78;2.10;;;19.60;81.70;;;;;;4199153;28;20055;-60
2021/09/23 10:56:28;;;;;;;3.90;1.70;;;19.60;81.60;;;;;;4207729;28;20067;-60
2021/09/23 10:58:53;;;;;;;4.70;1.88;;;19.60;81.70;;;;;;4207923;28;20044;-60
2021/09/23 11:01:22;;;;;;;4.30;1.88;;;19.60;81.80;;;;;;4208108;28;20487;-60
2021/09/23 11:03:45;;;;;;;5.80;1.70;;;19.60;81.80;;;;;;4208133;28;20093;-60
2021/09/23 11:06:10;;;;;;;6.43;1.88;;;19.60;81.80;;;;;;4207993;28;20044;-60
2021/09/23 11:08:40;;;;;;;3.55;1.60;;;19.60;82.10;;;;;;4190792;28;20052;-60
2021/09/23 11:11:02;;;;;;;4.40;1.85;;;19.60;82.20;;;;;;4191306;28;20131;-59
2021/09/23 11:13:24;;;;;;;4.22;2.30;;;19.60;82.20;;;;;;4190818;28;20573;-62
2021/09/23 11:15:48;;;;;;;3.00;1.50;;;19.60;82.30;;;;;;4209110;28;20044;-61
2021/09/23 11:18:11;;;;;;;4.35;1.77;;;19.60;82.60;;;;;;4206946;28;20056;-61
2021/09/23 11:20:35;;;;;;;5.00;1.85;;;19.60;83.50;;;;;;4207785;28;20478;-61
2021/09/23 11:23:02;;;;;;;4.72;1.90;;;19.50;82.90;;;;;;4207921;28;20048;-61
2021/09/23 11:25:26;;;;;;;6.97;2.53;;;19.60;83.70;;;;;;4207774;28;20036;-61
2021/09/23 11:27:49;;;;;;;4.15;1.60;;;19.60;83.00;;;;;;4207508;28;20051;-61
2021/09/23 11:30:14;;;;;;;5.30;2.45;;;19.50;83.00;;;;;;4207478;28;20490;-62
2021/09/23 11:32:46;;;;;;;10.57;2.10;;;19.50;83.20;;;;;;4236722;27;20051;-62
2021/09/23 11:35:09;;;;;;;5.18;2.03;;;19.50;83.40;;;;;;4234794;27;20074;-61
2021/09/23 11:37:33;;;;;;;6.97;2.50;;;19.60;83.30;;;;;;4207879;28;20245;-62
2021/09/23 11:39:57;;;;;;;6.50;2.08;;;19.60;83.40;;;;;;4203996;28;20489;-63
2021/09/23 11:42:21;;;;;;;5.85;2.10;;;19.60;83.40;;;;;;4207508;28;20117;-62
2021/09/23 11:44:45;;;;;;;4.50;1.98;;;19.60;83.60;;;;;;4206755;28;20058;-63
2021/09/23 11:47:19;;;;;;;8.13;2.17;;;19.60;83.40;;;;;;4207203;28;20505;-63
2021/09/23 11:49:42;;;;;;;4.65;2.30;;;19.60;83.40;;;;;;4207283;28;20048;-62
2021/09/23 11:52:05;;;;;;;4.18;1.90;;;19.60;83.50;;;;;;4208678;28;20071;-63
2021/09/23 11:54:28;;;;;;;5.55;2.15;;;19.60;83.50;;;;;;4207234;28;20101;-62
2021/09/23 11:56:51;;;;;;;7.18;1.83;;;19.60;83.30;;;;;;4207114;28;20097;-62
2021/09/23 11:59:19;;;;;;;4.88;1.90;;;19.60;83.50;;;;;;4235425;27;20047;-62
2021/09/23 12:01:41;;;;;;;6.47;1.85;;;19.60;83.70;;;;;;4207118;28;20048;-63
2021/09/23 12:04:11;;;;;;;4.50;1.73;;;19.60;83.70;;;;;;4207271;28;20043;-62
2021/09/23 12:06:37;;;;;;;5.07;1.65;;;19.60;83.90;;;;;;4190173;28;20127;-61
2021/09/23 12:09:07;;;;;;;4.38;1.73;;;19.60;83.70;;;;;;4189603;28;20044;-62
2021/09/23 12:11:30;;;;;;;3.55;1.40;;;19.60;83.90;;;;;;4218795;28;20102;-62
2021/09/23 12:14:08;;;;;;;6.78;2.47;;;19.60;83.70;;;;;;4198531;28;20143;-62
2021/09/23 12:16:31;;;;;;;4.72;1.77;;;19.60;83.60;;;;;;4206833;28;20079;-62
2021/09/23 12:19:04;;;;;;;3.33;1.80;;;19.60;83.60;;;;;;4206657;28;20518;-62
2021/09/23 12:21:28;;;;;;;4.50;1.92;;;19.60;83.60;;;;;;4208377;28;20465;-62